createdAt,value
2023-02-17T00:01:34.008Z,12.30
2023-02-17T00:04:01.188Z,13.18
2023-02-17T00:06:30.293Z,14.18
2023-02-17T00:08:58.037Z,13.35
2023-02-17T00:11:25.011Z,13.10
2023-02-17T00:13:54.561Z,13.13
2023-02-17T00:16:25.092Z,12.50
2023-02-17T00:19:00.187Z,14.27
2023-02-17T00:21:29.592Z,12.48
2023-02-17T00:23:57.966Z,11.90
2023-02-17T00:26:24.708Z,12.60
2023-02-17T00:28:51.615Z,11.90
2023-02-17T00:31:20.608Z,11.85
2023-02-17T00:33:47.540Z,11.82
2023-02-17T00:36:20.069Z,12.35
2023-02-17T00:38:48.177Z,10.57
2023-02-17T00:41:15.669Z,11.80
2023-02-17T00:43:42.316Z,11.65
2023-02-17T00:46:09.180Z,10.70
2023-02-17T00:48:35.996Z,12.40
2023-02-17T00:51:03.358Z,11.57
2023-02-17T00:53:30.076Z,12.93
2023-02-17T00:55:56.909Z,10.77
2023-02-17T00:58:23.889Z,13.55
2023-02-17T01:00:50.455Z,12.10
2023-02-17T01:03:18.895Z,12.05
2023-02-17T01:05:48.003Z,12.90
2023-02-17T01:08:17.761Z,11.75
2023-02-17T01:10:45.767Z,11.68
2023-02-17T01:13:13.549Z,11.57
2023-02-17T01:15:42.402Z,11.45
2023-02-17T01:18:09.184Z,9.98
2023-02-17T01:20:39.664Z,11.23
2023-02-17T01:23:07.640Z,10.70
2023-02-17T01:25:42.255Z,11.20
2023-02-17T01:28:13.759Z,10.77
2023-02-17T01:30:40.471Z,10.70
2023-02-17T01:33:07.147Z,10.77
2023-02-17T01:35:34.908Z,9.77
2023-02-17T01:38:01.509Z,10.60
2023-02-17T01:40:28.134Z,9.68
2023-02-17T01:42:54.736Z,9.93
2023-02-17T01:45:21.255Z,10.50
2023-02-17T01:47:50.697Z,10.60
2023-02-17T01:50:18.824Z,9.98
2023-02-17T01:52:45.888Z,10.07
2023-02-17T01:55:16.243Z,10.65
2023-02-17T01:57:45.337Z,10.90
2023-02-17T02:00:13.768Z,10.77
2023-02-17T02:02:44.086Z,9.63
2023-02-17T02:05:11.940Z,10.88
2023-02-17T02:07:41.434Z,9.40
2023-02-17T02:10:09.745Z,9.63
2023-02-17T02:12:39.771Z,10.23
2023-02-17T02:15:07.978Z,9.93
2023-02-17T02:17:59.187Z,10.93
2023-02-17T02:20:57.786Z,9.40
2023-02-17T02:23:50.288Z,9.45
2023-02-17T02:26:46.462Z,9.23
2023-02-17T02:29:25.064Z,9.68
2023-02-17T02:32:20.610Z,9.23
2023-02-17T02:34:56.936Z,9.50
2023-02-17T02:37:34.847Z,9.40
2023-02-17T02:40:05.744Z,9.23
2023-02-17T02:42:34.392Z,9.48
2023-02-17T02:45:01.231Z,9.55
2023-02-17T02:47:40.470Z,9.20
2023-02-17T02:50:09.427Z,8.73
2023-02-17T02:53:08.380Z,9.35
2023-02-17T02:55:41.515Z,9.25
2023-02-17T02:58:23.822Z,9.63
2023-02-17T03:03:41.545Z,9.50
2023-02-17T03:06:14.017Z,8.55
2023-02-17T03:09:00.904Z,9.50
2023-02-17T03:11:33.763Z,8.75
2023-02-17T03:14:06.821Z,8.63
2023-02-17T03:16:35.237Z,8.10
2023-02-17T03:19:01.893Z,7.85
2023-02-17T03:21:37.082Z,8.57
2023-02-17T03:24:04.456Z,8.00
2023-02-17T03:26:31.118Z,8.25
2023-02-17T03:28:57.753Z,9.68
2023-02-17T03:31:24.510Z,8.68
2023-02-17T03:33:51.189Z,8.35
2023-02-17T03:36:17.907Z,7.93
2023-02-17T03:38:44.556Z,8.43
2023-02-17T03:41:11.202Z,7.97
2023-02-17T03:43:37.816Z,8.00
2023-02-17T03:46:05.110Z,8.43
2023-02-17T03:48:31.928Z,8.20
2023-02-17T03:50:58.532Z,8.75
2023-02-17T03:53:25.122Z,7.88
2023-02-17T03:55:51.676Z,8.65
2023-02-17T03:58:18.288Z,8.35
2023-02-17T04:00:44.948Z,7.93
2023-02-17T04:03:11.596Z,8.15
2023-02-17T04:05:38.190Z,8.45
2023-02-17T04:08:04.912Z,7.35
2023-02-17T04:10:31.518Z,9.02
2023-02-17T04:12:58.085Z,8.18
2023-02-17T04:15:24.707Z,7.50
2023-02-17T04:17:51.292Z,7.80
2023-02-17T04:20:18.127Z,8.57
2023-02-17T04:22:46.274Z,8.00
2023-02-17T04:25:13.150Z,8.52
2023-02-17T04:27:39.821Z,7.70
2023-02-17T04:30:07.131Z,7.88
2023-02-17T04:32:33.809Z,7.07
2023-02-17T04:35:00.360Z,7.90
2023-02-17T04:37:27.065Z,8.02
2023-02-17T04:39:53.685Z,7.60
2023-02-17T04:42:20.322Z,6.78
2023-02-17T04:44:46.896Z,8.18
2023-02-17T04:47:13.476Z,7.07
2023-02-17T04:49:40.031Z,8.02
2023-02-17T04:52:06.811Z,6.88
2023-02-17T04:54:33.516Z,7.75
2023-02-17T04:57:00.156Z,7.38
2023-02-17T04:59:26.824Z,6.70
2023-02-17T05:01:53.468Z,6.90
2023-02-17T05:04:20.477Z,6.93
2023-02-17T05:06:47.036Z,6.32
2023-02-17T05:09:13.591Z,7.60
2023-02-17T05:11:40.143Z,7.47
2023-02-17T05:14:06.739Z,6.80
2023-02-17T05:16:33.400Z,6.55
2023-02-17T05:18:59.954Z,7.43
2023-02-17T05:21:26.485Z,6.82
2023-02-17T05:23:53.170Z,7.15
2023-02-17T05:26:19.732Z,6.30
2023-02-17T05:28:46.290Z,6.60
2023-02-17T05:31:13.233Z,6.32
2023-02-17T05:33:40.048Z,6.28
2023-02-17T05:36:09.271Z,7.15
2023-02-17T05:38:36.593Z,6.82
2023-02-17T05:41:03.393Z,6.80
2023-02-17T05:43:30.624Z,6.50
2023-02-17T05:46:02.282Z,6.32
2023-02-17T05:48:29.016Z,6.88
2023-02-17T05:50:55.646Z,7.07
2023-02-17T05:53:22.272Z,6.43
2023-02-17T05:55:48.970Z,8.07
2023-02-17T05:58:15.801Z,7.35
2023-02-17T06:00:42.412Z,6.60
2023-02-17T06:03:09.076Z,7.57
2023-02-17T06:05:35.673Z,7.72
2023-02-17T06:08:02.253Z,7.30
2023-02-17T06:10:29.083Z,7.05
2023-02-17T06:12:55.978Z,8.23
2023-02-17T06:15:22.807Z,7.80
2023-02-17T06:17:49.505Z,8.40
2023-02-17T06:20:16.331Z,8.25
2023-02-17T06:22:43.632Z,9.40
2023-02-17T06:25:13.819Z,10.20
2023-02-17T06:27:42.044Z,9.10
2023-02-17T06:30:09.419Z,11.43
2023-02-17T06:32:36.115Z,10.30
2023-02-17T06:35:02.986Z,14.40
2023-02-17T06:37:29.572Z,9.45
2023-02-17T06:39:56.173Z,11.43
2023-02-17T06:42:22.747Z,11.32
2023-02-17T06:44:49.420Z,10.90
2023-02-17T06:47:16.124Z,8.32
2023-02-17T06:49:42.674Z,9.85
2023-02-17T06:52:09.361Z,10.02
2023-02-17T06:54:35.906Z,8.88
2023-02-17T06:57:02.515Z,8.05
2023-02-17T06:59:29.169Z,9.00
2023-02-17T07:01:55.783Z,7.60
2023-02-17T07:04:22.372Z,6.95
2023-02-17T07:06:48.915Z,10.82
2023-02-17T07:09:15.504Z,7.40
2023-02-17T07:11:44.335Z,6.97
2023-02-17T07:14:11.376Z,8.35
2023-02-17T07:16:39.401Z,5.25
2023-02-17T07:19:05.989Z,8.10
2023-02-17T07:21:32.580Z,8.27
2023-02-17T07:23:59.135Z,8.20
2023-02-17T07:26:25.761Z,10.20
2023-02-17T07:28:52.511Z,8.15
2023-02-17T07:31:19.180Z,6.63
2023-02-17T07:33:47.938Z,6.95
2023-02-17T07:36:16.684Z,6.68
2023-02-17T07:38:43.771Z,6.75
2023-02-17T07:41:22.132Z,5.13
2023-02-17T07:43:49.174Z,7.03
2023-02-17T07:46:17.164Z,5.75
2023-02-17T07:48:43.897Z,6.43
2023-02-17T07:51:13.005Z,5.30
2023-02-17T07:53:39.957Z,4.97
2023-02-17T07:56:09.023Z,5.50
2023-02-17T07:58:37.855Z,7.25
2023-02-17T08:01:18.366Z,6.63
2023-02-17T08:03:47.082Z,6.13
2023-02-17T08:06:25.240Z,7.28
2023-02-17T08:09:11.868Z,5.90
2023-02-17T08:11:58.457Z,4.82
2023-02-17T08:14:26.929Z,7.53
2023-02-17T08:16:53.935Z,5.43
2023-02-17T08:19:20.777Z,8.85
2023-02-17T08:21:47.443Z,8.25
2023-02-17T08:24:16.069Z,5.03
2023-02-17T08:26:42.735Z,5.88
2023-02-17T08:29:09.354Z,5.78
2023-02-17T08:31:36.889Z,5.13
2023-02-17T08:34:08.698Z,5.22
2023-02-17T08:36:37.474Z,5.88
2023-02-17T08:39:06.470Z,4.60
2023-02-17T08:41:35.988Z,5.30
2023-02-17T08:44:07.473Z,4.85
2023-02-17T08:46:35.204Z,4.55
2023-02-17T08:49:02.005Z,5.07
2023-02-17T08:51:28.577Z,5.25
2023-02-17T08:53:58.135Z,3.90
2023-02-17T08:56:26.442Z,5.00
2023-02-17T08:58:53.533Z,5.75
2023-02-17T09:01:21.155Z,6.13
2023-02-17T09:03:49.719Z,4.70
2023-02-17T09:06:16.970Z,5.30
2023-02-17T09:08:44.367Z,5.32
2023-02-17T09:11:11.035Z,5.05
2023-02-17T09:13:38.217Z,5.65
2023-02-17T09:16:05.522Z,6.28
2023-02-17T09:18:32.428Z,4.55
2023-02-17T09:21:00.461Z,6.15
2023-02-17T09:23:27.442Z,5.32
2023-02-17T09:26:23.707Z,3.75
2023-02-17T09:28:50.371Z,4.00
2023-02-17T09:31:24.112Z,3.75
2023-02-17T09:33:51.632Z,4.30
2023-02-17T09:36:24.903Z,4.88
2023-02-17T09:38:52.123Z,4.10
2023-02-17T09:41:34.233Z,3.33
2023-02-17T09:44:01.327Z,4.07
2023-02-17T09:46:32.541Z,3.88
2023-02-17T09:49:13.910Z,4.33
2023-02-17T09:52:05.472Z,4.67
2023-02-17T09:55:04.455Z,3.83
2023-02-17T09:57:54.696Z,3.42
2023-02-17T10:00:34.232Z,4.15
2023-02-17T10:03:20.558Z,3.67
2023-02-17T10:06:04.701Z,3.40
2023-02-17T10:08:38.844Z,3.38
2023-02-17T10:11:16.269Z,3.60
2023-02-17T10:13:45.745Z,4.97
2023-02-17T10:16:23.239Z,3.28
2023-02-17T10:18:58.934Z,3.60
2023-02-17T10:21:35.390Z,3.97
2023-02-17T10:24:02.271Z,5.28
2023-02-17T10:26:34.608Z,4.70
2023-02-17T10:29:26.772Z,3.30
2023-02-17T10:32:13.525Z,4.93
2023-02-17T10:35:01.129Z,3.88
2023-02-17T10:37:40.519Z,2.92
2023-02-17T10:40:23.257Z,3.85
2023-02-17T10:42:54.408Z,3.17
2023-02-17T10:45:35.039Z,3.23
2023-02-17T10:48:24.617Z,3.28
2023-02-17T10:50:51.723Z,2.80
2023-02-17T10:53:22.492Z,3.63
2023-02-17T10:56:07.330Z,3.05
2023-02-17T10:58:49.833Z,3.50
2023-02-17T11:01:17.149Z,3.38
2023-02-17T11:03:43.852Z,3.03
2023-02-17T11:06:37.809Z,3.30
2023-02-17T11:09:08.209Z,3.28
2023-02-17T11:11:36.376Z,4.15
2023-02-17T11:14:06.003Z,3.00
2023-02-17T11:16:36.724Z,3.22
2023-02-17T11:19:05.007Z,2.50
2023-02-17T11:21:33.259Z,2.63
2023-02-17T11:24:03.184Z,2.67
2023-02-17T11:26:32.909Z,2.90
2023-02-17T11:29:22.117Z,2.65
2023-02-17T11:31:57.706Z,2.72
2023-02-17T11:34:29.784Z,2.70
2023-02-17T11:37:14.425Z,2.60
2023-02-17T11:39:42.545Z,2.60
2023-02-17T11:42:29.103Z,3.10
2023-02-17T11:44:58.901Z,2.42
2023-02-17T11:47:35.105Z,2.60
2023-02-17T11:50:38.880Z,2.47
2023-02-17T11:53:28.487Z,2.67
2023-02-17T11:56:02.183Z,2.38
2023-02-17T11:58:51.432Z,2.15
2023-02-17T12:01:52.675Z,2.42
2023-02-17T12:04:36.412Z,2.60
2023-02-17T12:07:29.197Z,2.40
2023-02-17T12:09:58.844Z,2.90
2023-02-17T12:12:58.792Z,3.15
2023-02-17T12:15:40.086Z,2.42
2023-02-17T12:18:43.478Z,2.40
2023-02-17T12:21:20.215Z,2.25
2023-02-17T12:23:55.762Z,2.72
2023-02-17T12:26:37.327Z,2.03
2023-02-17T12:29:25.784Z,2.15
2023-02-17T12:32:08.339Z,2.47
2023-02-17T12:34:44.620Z,2.42
2023-02-17T12:37:20.782Z,2.45
2023-02-17T12:39:54.712Z,2.53
2023-02-17T12:42:40.452Z,2.20
2023-02-17T12:45:18.502Z,2.47
2023-02-17T12:47:56.974Z,2.25
2023-02-17T12:50:39.507Z,2.38
2023-02-17T12:53:13.960Z,2.25
2023-02-17T12:55:46.646Z,2.53
2023-02-17T12:58:18.012Z,2.13
2023-02-17T13:00:53.242Z,1.85
2023-02-17T13:03:19.970Z,2.17
2023-02-17T13:06:09.025Z,2.50
2023-02-17T13:09:07.505Z,2.20
2023-02-17T13:11:35.530Z,2.50
2023-02-17T13:14:26.087Z,2.78
2023-02-17T13:16:52.742Z,2.30
2023-02-17T13:19:30.511Z,1.80
2023-02-17T13:21:59.935Z,2.58
2023-02-17T13:24:34.606Z,2.33
2023-02-17T13:27:31.024Z,2.05
2023-02-17T13:30:17.209Z,1.90
2023-02-17T13:32:44.904Z,2.83
2023-02-17T13:35:14.491Z,2.00
2023-02-17T13:37:45.832Z,2.20
2023-02-17T13:40:15.355Z,2.20
2023-02-17T13:42:44.167Z,1.80
2023-02-17T13:45:22.826Z,2.03
2023-02-17T13:47:51.218Z,1.90
2023-02-17T13:50:32.925Z,2.00
2023-02-17T13:53:00.924Z,1.77
2023-02-17T13:55:27.966Z,1.73
2023-02-17T13:57:58.071Z,1.85
2023-02-17T14:00:30.667Z,2.00
2023-02-17T14:02:59.549Z,2.40
2023-02-17T14:05:46.687Z,2.08
2023-02-17T14:08:32.226Z,1.92
2023-02-17T14:11:12.323Z,1.83
2023-02-17T14:13:42.264Z,2.10
2023-02-17T14:16:26.046Z,2.08
2023-02-17T14:19:21.234Z,1.92
2023-02-17T14:22:02.891Z,2.15
2023-02-17T14:24:35.782Z,1.70
2023-02-17T14:27:05.640Z,1.70
2023-02-17T14:29:49.545Z,2.03
2023-02-17T14:32:37.440Z,2.28
2023-02-17T14:35:23.197Z,2.00
2023-02-17T14:37:50.314Z,1.70
2023-02-17T14:40:23.237Z,1.67
2023-02-17T14:42:50.621Z,1.80
2023-02-17T14:45:18.784Z,1.60
2023-02-17T14:47:46.840Z,1.73
2023-02-17T14:50:13.827Z,1.77
2023-02-17T14:52:44.327Z,1.63
2023-02-17T14:55:19.345Z,1.60
2023-02-17T14:57:46.067Z,1.58
2023-02-17T15:00:14.499Z,1.50
2023-02-17T15:02:41.129Z,1.70
2023-02-17T15:05:07.975Z,1.90
2023-02-17T15:07:35.076Z,1.60
2023-02-17T15:10:01.714Z,1.50
2023-02-17T15:12:28.494Z,1.88
2023-02-17T15:14:55.097Z,1.50
2023-02-17T15:17:21.744Z,1.48
2023-02-17T15:19:49.219Z,1.52
2023-02-17T15:22:15.776Z,2.03
2023-02-17T15:24:42.510Z,1.42
2023-02-17T15:27:14.484Z,1.30
2023-02-17T15:29:41.447Z,2.03
2023-02-17T15:32:17.873Z,1.88
2023-02-17T15:34:45.659Z,1.45
2023-02-17T15:37:12.206Z,1.80
2023-02-17T15:39:38.750Z,1.60
2023-02-17T15:42:11.332Z,1.70
2023-02-17T15:44:48.691Z,1.60
2023-02-17T15:47:18.395Z,6.75
2023-02-17T15:49:45.665Z,9.95
2023-02-17T15:52:13.497Z,3.33
2023-02-17T15:54:42.535Z,3.10
2023-02-17T15:57:24.451Z,2.70
2023-02-17T15:59:54.794Z,4.07
2023-02-17T16:02:23.579Z,3.80
2023-02-17T16:04:50.329Z,2.00
2023-02-17T16:07:17.086Z,3.10
2023-02-17T16:09:43.809Z,3.05
2023-02-17T16:12:17.361Z,2.60
2023-02-17T16:14:45.068Z,4.28
2023-02-17T16:17:15.871Z,1.70
2023-02-17T16:19:42.936Z,3.70
2023-02-17T16:22:09.584Z,2.42
2023-02-17T16:24:36.512Z,2.47
2023-02-17T16:27:03.351Z,1.55
2023-02-17T16:29:30.038Z,1.80
2023-02-17T16:31:56.719Z,2.72
2023-02-17T16:34:24.407Z,1.95
2023-02-17T16:36:53.285Z,4.13
2023-02-17T16:39:20.906Z,1.58
2023-02-17T16:41:48.414Z,2.58
2023-02-17T16:44:17.544Z,4.30
2023-02-17T16:46:55.348Z,2.05
2023-02-17T16:49:31.823Z,1.90
2023-02-17T16:52:03.757Z,2.75
2023-02-17T16:54:30.682Z,3.50
2023-02-17T16:56:58.104Z,1.60
2023-02-17T16:59:26.391Z,2.58
2023-02-17T17:01:53.505Z,2.40
2023-02-17T17:04:21.202Z,5.00
2023-02-17T17:06:50.427Z,2.97
2023-02-17T17:09:19.558Z,1.55
2023-02-17T17:11:46.253Z,2.20
2023-02-17T17:14:13.078Z,1.48
2023-02-17T17:16:42.339Z,2.22
2023-02-17T17:19:12.319Z,1.75
2023-02-17T17:21:38.916Z,2.67
2023-02-17T17:24:05.572Z,1.45
2023-02-17T17:26:33.770Z,2.30
2023-02-17T17:29:00.866Z,1.30
2023-02-17T17:31:28.463Z,1.60
2023-02-17T17:33:55.575Z,5.15
2023-02-17T17:36:26.315Z,29.83
2023-02-17T17:38:54.449Z,18.23
2023-02-17T17:41:21.750Z,14.73
2023-02-17T17:43:49.681Z,11.60
2023-02-17T17:46:23.211Z,8.90
2023-02-17T17:48:50.286Z,10.10
2023-02-17T17:51:19.613Z,8.48
2023-02-17T17:53:46.705Z,9.60
2023-02-17T17:56:25.938Z,9.80
2023-02-17T17:58:52.805Z,6.07
2023-02-17T18:01:21.432Z,5.88
2023-02-17T18:03:48.965Z,5.03
2023-02-17T18:06:24.680Z,7.15
2023-02-17T18:08:53.466Z,7.80
2023-02-17T18:11:24.059Z,8.15
2023-02-17T18:13:53.402Z,5.60
2023-02-17T18:16:22.905Z,6.03
2023-02-17T18:18:50.492Z,7.55
2023-02-17T18:21:17.292Z,11.02
2023-02-17T18:23:44.173Z,7.43
2023-02-17T18:26:12.170Z,6.18
2023-02-17T18:28:39.127Z,6.18
2023-02-17T18:31:08.494Z,8.48
2023-02-17T18:33:35.641Z,7.97
2023-02-17T18:36:17.231Z,4.85
2023-02-17T18:38:44.538Z,6.93
2023-02-17T18:41:24.041Z,6.97
2023-02-17T18:43:51.644Z,5.95
2023-02-17T18:46:18.507Z,7.65
2023-02-17T18:48:45.247Z,4.18
2023-02-17T18:51:15.237Z,5.65
2023-02-17T18:53:42.478Z,6.05
2023-02-17T18:56:15.446Z,5.28
2023-02-17T18:58:42.072Z,7.55
2023-02-17T19:01:16.184Z,3.33
2023-02-17T19:03:43.034Z,4.50
2023-02-17T19:06:12.265Z,6.70
2023-02-17T19:08:39.024Z,5.60
2023-02-17T19:11:05.787Z,6.10
2023-02-17T19:13:32.352Z,7.85
2023-02-17T19:16:12.135Z,6.15
2023-02-17T19:18:40.117Z,5.90
2023-02-17T19:21:07.465Z,3.70
2023-02-17T19:23:35.821Z,7.68
2023-02-17T19:26:03.886Z,7.13
2023-02-17T19:28:30.558Z,6.00
2023-02-17T19:30:57.655Z,6.45
2023-02-17T19:33:25.115Z,7.85
2023-02-17T19:35:52.454Z,8.75
2023-02-17T19:38:19.391Z,13.63
2023-02-17T19:40:46.118Z,7.40
2023-02-17T19:43:12.965Z,7.93
2023-02-17T19:45:39.650Z,10.00
2023-02-17T19:48:06.404Z,6.85
2023-02-17T19:50:33.063Z,6.47
2023-02-17T19:52:59.673Z,7.10
2023-02-17T19:55:26.408Z,6.10
2023-02-17T19:57:53.317Z,12.98
2023-02-17T20:00:20.351Z,9.55
2023-02-17T20:02:47.039Z,7.68
2023-02-17T20:05:13.685Z,7.32
2023-02-17T20:07:40.278Z,14.38
2023-02-17T20:10:10.692Z,8.77
2023-02-17T20:12:37.887Z,8.55
2023-02-17T20:15:05.313Z,5.82
2023-02-17T20:17:31.993Z,5.97
2023-02-17T20:19:59.446Z,8.90
2023-02-17T20:22:26.198Z,9.90
2023-02-17T20:24:52.914Z,13.85
2023-02-17T20:27:19.503Z,11.10
2023-02-17T20:29:46.117Z,13.68
2023-02-17T20:32:12.856Z,13.30
2023-02-17T20:34:40.457Z,12.25
2023-02-17T20:37:08.415Z,10.38
2023-02-17T20:39:36.110Z,11.50
2023-02-17T20:42:04.009Z,9.27
2023-02-17T20:44:30.752Z,10.70
2023-02-17T20:46:57.680Z,10.45
2023-02-17T20:49:25.477Z,10.95
2023-02-17T20:51:52.230Z,10.05
2023-02-17T20:54:18.866Z,12.93
2023-02-17T20:56:47.338Z,10.63
2023-02-17T20:59:14.862Z,9.93
2023-02-17T21:01:42.194Z,8.60
2023-02-17T21:04:09.751Z,10.90
2023-02-17T21:06:41.075Z,11.57
2023-02-17T21:09:13.037Z,9.15
2023-02-17T21:11:40.134Z,14.27
2023-02-17T21:14:06.721Z,12.60
2023-02-17T21:16:33.783Z,8.63
2023-02-17T21:19:01.098Z,10.77
2023-02-17T21:21:28.699Z,9.05
2023-02-17T21:23:56.074Z,9.05
2023-02-17T21:26:22.772Z,11.88
2023-02-17T21:28:49.965Z,5.47
2023-02-17T21:31:17.631Z,8.18
2023-02-17T21:33:44.433Z,7.50
2023-02-17T21:36:17.275Z,11.93
2023-02-17T21:38:44.622Z,7.93
2023-02-17T21:41:20.105Z,6.60
2023-02-17T21:44:05.588Z,8.40
2023-02-17T21:46:32.932Z,6.00
2023-02-17T21:49:01.127Z,5.97
2023-02-17T21:51:28.177Z,9.40
2023-02-17T21:53:54.874Z,7.78
2023-02-17T21:56:22.530Z,5.40
2023-02-17T21:58:54.204Z,5.63
2023-02-17T22:01:23.114Z,7.47
2023-02-17T22:03:49.922Z,5.63
2023-02-17T22:06:28.689Z,8.23
2023-02-17T22:08:56.144Z,5.50
2023-02-17T22:11:25.672Z,5.90
2023-02-17T22:13:57.579Z,5.32
2023-02-17T22:16:24.790Z,7.90
2023-02-17T22:18:52.750Z,7.25
2023-02-17T22:21:19.430Z,6.28
2023-02-17T22:23:46.193Z,4.47
2023-02-17T22:26:16.389Z,4.38
2023-02-17T22:28:43.607Z,4.90
2023-02-17T22:31:13.820Z,5.57
2023-02-17T22:33:40.595Z,3.85
2023-02-17T22:36:13.003Z,4.82
2023-02-17T22:38:39.786Z,4.65
2023-02-17T22:41:13.199Z,5.63
2023-02-17T22:43:41.436Z,6.05
2023-02-17T22:46:09.675Z,4.68
2023-02-17T22:48:38.576Z,4.72
2023-02-17T22:51:14.012Z,3.55
2023-02-17T22:53:40.646Z,3.85
2023-02-17T22:56:08.833Z,3.83
2023-02-17T22:58:36.481Z,5.05
2023-02-17T23:01:18.367Z,3.22
2023-02-17T23:03:45.410Z,4.15
2023-02-17T23:06:15.094Z,2.88
2023-02-17T23:08:43.066Z,3.70
2023-02-17T23:11:12.709Z,3.80
2023-02-17T23:13:39.854Z,3.75
2023-02-17T23:16:08.441Z,4.63
2023-02-17T23:18:36.171Z,3.22
2023-02-17T23:21:12.125Z,4.68
2023-02-17T23:23:38.926Z,3.75
2023-02-17T23:26:06.067Z,2.90
2023-02-17T23:28:32.993Z,3.40
2023-02-17T23:30:59.671Z,3.10
2023-02-17T23:33:26.307Z,3.63
2023-02-17T23:35:52.900Z,4.18
2023-02-17T23:38:21.207Z,4.13
2023-02-17T23:40:50.470Z,4.75
2023-02-17T23:43:17.571Z,2.80
2023-02-17T23:45:44.399Z,3.13
2023-02-17T23:48:11.245Z,2.92
2023-02-17T23:50:38.054Z,2.60
2023-02-17T23:53:05.210Z,4.00
2023-02-17T23:55:31.808Z,3.13
2023-02-17T23:58:00.447Z,3.75
